Time;durP1;ratioP1;P1;durP2;ratioP2;P2;SDS_P1;SDS_P2;PMS_P1;PMS_P2;Temp;Humidity;BMP_temperature;BMP_pressure;BME280_temperature;BME280_humidity;BME280_pressure;Samples;Min_cycle;Max_cycle;Signal;HPM_P1;HPM_P2
2023/10/13 00:00:40;;;;;;;10.83;1.83;;;16.20;94.50;;;;;;5005581;28;20431;-63
2023/10/13 00:03:08;;;;;;;4.97;2.23;;;16.10;94.30;;;;;;5011388;28;20176;-63
2023/10/13 00:05:34;;;;;;;6.40;2.50;;;16.00;94.80;;;;;;5006383;28;20425;-63
2023/10/13 00:08:02;;;;;;;5.60;2.00;;;15.90;94.60;;;;;;5008010;28;20484;-63
2023/10/13 00:10:29;;;;;;;3.13;1.80;;;15.80;94.60;;;;;;5010786;28;20514;-63
2023/10/13 00:13:05;;;;;;;5.70;2.13;;;15.60;94.40;;;;;;5008567;28;20462;-63
2023/10/13 00:15:38;;;;;;;5.97;1.97;;;15.50;94.40;;;;;;5007434;28;20434;-62
2023/10/13 00:18:12;;;;;;;5.80;1.53;;;15.40;94.60;;;;;;5007407;28;20430;-64
2023/10/13 00:20:47;;;;;;;4.53;2.07;;;15.40;94.60;;;;;;5005447;28;20867;-63
2023/10/13 00:23:13;;;;;;;5.83;2.13;;;15.30;94.60;;;;;;5007881;28;20416;-63
2023/10/13 00:25:49;;;;;;;3.03;1.60;;;15.20;94.80;;;;;;5009115;28;20413;-63
2023/10/13 00:28:23;;;;;;;5.97;2.00;;;15.20;95.10;;;;;;5011329;28;20186;-63
2023/10/13 00:30:52;;;;;;;7.17;2.27;;;15.20;94.70;;;;;;5006399;28;20949;-63
2023/10/13 00:33:20;;;;;;;3.87;1.90;;;15.20;94.60;;;;;;5008784;28;20418;-63
2023/10/13 00:35:47;;;;;;;19.93;3.03;;;15.20;94.70;;;;;;5008700;28;20939;-63
2023/10/13 00:38:13;;;;;;;6.70;2.40;;;15.20;94.80;;;;;;5009776;28;20474;-63
2023/10/13 00:40:43;;;;;;;4.40;2.17;;;15.20;94.90;;;;;;5010089;28;20476;-63
2023/10/13 00:43:42;;;;;;;7.53;3.00;;;15.20;94.60;;;;;;5011235;28;20181;-63
2023/10/13 00:48:33;;;;;;;4.70;2.50;;;15.40;93.70;;;;;;5010402;28;20418;-63
2023/10/13 00:51:02;;;;;;;3.83;1.93;;;15.60;93.20;;;;;;5008642;28;20459;-63
2023/10/13 00:53:34;;;;;;;7.47;2.47;;;15.70;93.40;;;;;;5010974;28;20413;-63
2023/10/13 00:56:18;;;;;;;3.70;1.80;;;15.70;93.40;;;;;;5005660;28;20449;-63
2023/10/13 00:58:46;;;;;;;7.00;2.80;;;15.70;93.30;;;;;;5003973;28;20549;-63
2023/10/13 01:01:18;;;;;;;10.50;2.17;;;15.70;93.70;;;;;;5008426;28;20422;-63
2023/10/13 01:03:55;;;;;;;4.60;1.40;;;15.60;93.90;;;;;;5010104;28;20433;-63
2023/10/13 01:06:28;;;;;;;5.50;2.37;;;15.50;94.10;;;;;;5009690;28;20414;-63
2023/10/13 01:09:11;;;;;;;13.40;2.07;;;15.60;94.30;;;;;;5009091;28;20414;-63
2023/10/13 01:11:38;;;;;;;4.83;2.23;;;15.50;94.20;;;;;;5006537;28;20517;-63
2023/10/13 01:14:05;;;;;;;9.00;2.07;;;15.50;94.70;;;;;;5004265;28;20442;-63
2023/10/13 01:16:32;;;;;;;6.60;2.20;;;15.30;94.80;;;;;;5008646;28;20906;-63
2023/10/13 01:18:59;;;;;;;6.30;1.80;;;15.30;94.90;;;;;;5008224;28;20465;-63
2023/10/13 01:21:27;;;;;;;25.13;2.17;;;15.20;94.50;;;;;;5008355;28;20426;-63
2023/10/13 01:23:53;;;;;;;5.03;2.30;;;15.20;94.90;;;;;;5009721;28;20968;-63
2023/10/13 01:26:26;;;;;;;4.03;1.90;;;15.20;94.80;;;;;;5009246;28;20414;-63
2023/10/13 01:28:57;;;;;;;4.27;2.10;;;15.20;94.70;;;;;;5009738;28;20425;-63
2023/10/13 01:31:30;;;;;;;6.23;2.30;;;15.10;95.00;;;;;;5009971;28;20568;-63
2023/10/13 01:33:59;;;;;;;6.87;2.77;;;15.10;95.10;;;;;;5009008;28;20418;-63
2023/10/13 01:36:27;;;;;;;5.40;2.40;;;15.00;95.40;;;;;;5007766;28;20974;-63
2023/10/13 01:38:53;;;;;;;32.93;3.03;;;15.10;94.80;;;;;;5008797;28;20461;-63
2023/10/13 01:41:21;;;;;;;9.17;2.47;;;15.10;94.60;;;;;;5010680;28;20426;-63
2023/10/13 01:43:48;;;;;;;4.27;2.23;;;15.00;95.70;;;;;;5009821;28;20258;-63
2023/10/13 01:46:15;;;;;;;3.40;2.07;;;14.90;95.50;;;;;;5004593;28;20432;-63
2023/10/13 01:48:43;;;;;;;5.13;2.40;;;14.80;95.40;;;;;;5006663;28;20426;-64
2023/10/13 01:51:12;;;;;;;6.63;2.83;;;14.70;95.40;;;;;;5004520;28;20567;-63
2023/10/13 01:53:38;;;;;;;3.47;1.60;;;14.70;95.50;;;;;;5009893;28;20430;-63
2023/10/13 01:56:09;;;;;;;8.83;2.50;;;14.70;95.00;;;;;;5002783;28;20752;-63
2023/10/13 01:58:36;;;;;;;3.13;1.70;;;14.70;94.90;;;;;;5009862;28;20534;-63
2023/10/13 02:01:07;;;;;;;3.83;1.97;;;14.60;95.40;;;;;;5007713;28;20425;-63
2023/10/13 02:03:33;;;;;;;4.77;2.33;;;14.70;95.30;;;;;;5009652;28;20418;-63
2023/10/13 02:06:04;;;;;;;4.63;2.40;;;14.70;95.20;;;;;;5002570;28;20929;-63
2023/10/13 02:08:29;;;;;;;5.63;2.07;;;14.70;95.10;;;;;;5004016;28;20187;-63
2023/10/13 02:10:56;;;;;;;8.20;2.87;;;14.70;95.50;;;;;;5005016;28;20485;-63
2023/10/13 02:13:24;;;;;;;6.10;2.57;;;14.60;95.60;;;;;;5007672;28;20762;-63
2023/10/13 02:15:57;;;;;;;3.07;1.30;;;14.60;95.90;;;;;;4999479;28;20430;-63
2023/10/13 02:18:27;;;;;;;6.43;2.00;;;14.60;95.80;;;;;;5006817;28;20462;-63
2023/10/13 02:21:04;;;;;;;4.57;1.87;;;14.50;95.70;;;;;;5007540;28;20458;-63
2023/10/13 02:23:30;;;;;;;8.10;1.83;;;14.60;95.50;;;;;;5008066;28;20418;-63
2023/10/13 02:26:09;;;;;;;4.60;2.27;;;14.50;95.30;;;;;;5006969;28;20410;-63
2023/10/13 02:28:35;;;;;;;7.10;2.67;;;14.60;95.50;;;;;;5009293;28;20430;-63
2023/10/13 02:31:03;;;;;;;12.90;3.17;;;14.60;95.20;;;;;;5008987;28;20821;-63
2023/10/13 02:33:29;;;;;;;18.33;2.13;;;14.70;95.20;;;;;;5012710;28;20190;-63
2023/10/13 02:36:05;;;;;;;2.73;1.40;;;14.60;94.90;;;;;;5011198;28;20426;-63
2023/10/13 02:38:42;;;;;;;5.40;1.70;;;14.80;94.40;;;;;;5013107;28;20487;-63
2023/10/13 02:41:27;;;;;;;2.70;1.90;;;14.80;94.40;;;;;;5012418;28;20418;-63
2023/10/13 02:43:54;;;;;;;10.43;2.43;;;14.90;94.00;;;;;;5006137;28;20489;-63
2023/10/13 02:46:28;;;;;;;9.80;2.73;;;15.00;94.10;;;;;;5008240;28;20559;-63
2023/10/13 02:48:54;;;;;;;19.07;2.90;;;15.00;94.20;;;;;;5011280;28;20464;-63
2023/10/13 02:51:25;;;;;;;4.93;1.60;;;15.20;93.70;;;;;;5012705;28;20842;-63
2023/10/13 02:53:52;;;;;;;7.00;2.40;;;15.20;93.60;;;;;;5012376;28;20186;-63
2023/10/13 02:56:22;;;;;;;3.87;2.03;;;15.30;93.70;;;;;;5009319;28;20414;-63
2023/10/13 02:58:56;;;;;;;6.33;2.30;;;15.30;93.80;;;;;;5011837;28;20462;-63
2023/10/13 03:01:27;;;;;;;5.73;2.60;;;15.20;93.70;;;;;;5011849;28;20410;-63
2023/10/13 03:03:55;;;;;;;5.30;2.20;;;15.20;93.90;;;;;;5011709;28;20508;-63
2023/10/13 03:06:32;;;;;;;17.33;2.03;;;15.00;94.10;;;;;;5010992;28;20997;-63
2023/10/13 03:09:13;;;;;;;4.73;2.57;;;15.00;94.10;;;;;;5011575;28;20446;-63
2023/10/13 03:11:47;;;;;;;16.60;2.67;;;15.10;93.80;;;;;;5004961;28;20981;-63
2023/10/13 03:14:23;;;;;;;8.53;1.90;;;15.20;94.10;;;;;;5010597;28;20430;-63
2023/10/13 03:16:53;;;;;;;4.37;2.30;;;15.20;93.70;;;;;;5011166;28;20422;-63
2023/10/13 03:19:19;;;;;;;7.80;2.53;;;15.30;93.60;;;;;;5009095;28;20560;-63
2023/10/13 03:21:54;;;;;;;10.80;1.87;;;15.40;93.50;;;;;;5012624;28;20427;-63
2023/10/13 03:24:33;;;;;;;7.80;2.37;;;15.30;93.10;;;;;;5010194;28;20230;-63
2023/10/13 03:27:08;;;;;;;4.20;1.40;;;15.40;92.90;;;;;;5012273;28;20543;-63
2023/10/13 03:29:35;;;;;;;4.30;1.90;;;15.50;92.90;;;;;;5009917;28;20433;-63
2023/10/13 03:32:11;;;;;;;10.53;2.70;;;15.60;92.60;;;;;;5011893;28;20414;-63
2023/10/13 03:34:40;;;;;;;6.03;2.30;;;15.70;92.50;;;;;;5009684;28;20966;-63
2023/10/13 03:37:18;;;;;;;3.50;1.77;;;15.70;92.50;;;;;;5012172;28;20458;-63
2023/10/13 03:39:45;;;;;;;6.37;2.43;;;15.80;92.30;;;;;;5008900;28;20734;-63
2023/10/13 03:42:18;;;;;;;9.07;2.33;;;15.80;92.30;;;;;;5007834;28;20453;-63
2023/10/13 03:44:46;;;;;;;5.80;2.57;;;15.80;92.10;;;;;;5008094;28;20880;-63
2023/10/13 03:47:18;;;;;;;4.90;2.27;;;15.80;92.20;;;;;;5011538;28;20461;-63
2023/10/13 03:49:45;;;;;;;7.20;2.33;;;15.90;92.00;;;;;;5003228;28;20450;-63
2023/10/13 03:52:13;;;;;;;8.87;2.67;;;15.90;92.20;;;;;;5007865;28;20449;-63
2023/10/13 03:54:40;;;;;;;4.43;2.10;;;15.90;92.00;;;;;;5008331;28;20476;-63
2023/10/13 03:57:11;;;;;;;6.10;2.20;;;15.90;91.80;;;;;;5011994;28;20418;-63
2023/10/13 03:59:38;;;;;;;3.20;1.63;;;15.90;92.00;;;;;;5009511;28;20462;-63
2023/10/13 04:02:11;;;;;;;7.27;2.50;;;16.00;91.80;;;;;;5007215;28;20421;-63
2023/10/13 04:04:54;;;;;;;4.57;2.30;;;16.00;91.80;;;;;;5007366;28;20453;-63
2023/10/13 04:10:09;;;;;;;5.10;2.23;;;15.90;91.90;;;;;;5010801;28;20753;-63
2023/10/13 04:15:22;;;;;;;4.17;2.20;;;15.90;91.80;;;;;;5008436;28;20432;-63
2023/10/13 04:17:50;;;;;;;5.93;2.63;;;15.90;91.70;;;;;;5011403;28;20414;-63
2023/10/13 04:20:27;;;;;;;6.80;1.90;;;15.90;92.00;;;;;;5009299;28;20521;-63
2023/10/13 04:39:00;;;;;;;4.07;2.20;;;15.70;92.10;;;;;;5010468;28;20458;-63
2023/10/13 04:41:42;;;;;;;6.17;2.17;;;15.60;92.60;;;;;;5004420;28;20877;-63
2023/10/13 04:49:35;;;;;;;11.50;2.60;;;15.20;93.40;;;;;;5008610;28;20426;-63
2023/10/13 04:57:33;;;;;;;8.60;2.50;;;14.80;94.20;;;;;;5007392;28;20430;-63
2023/10/13 05:49:18;;;;;;;11.43;2.30;;;13.40;97.10;;;;;;5009171;28;21089;-64
2023/10/13 06:29:35;;;;;;;4.50;2.30;;;15.00;94.70;;;;;;5010896;28;20537;-64
2023/10/13 06:32:01;;;;;;;3.70;2.03;;;15.00;94.40;;;;;;5011921;28;20509;-63
2023/10/13 06:34:44;;;;;;;8.37;2.50;;;15.20;94.40;;;;;;5003219;28;20210;-63
2023/10/13 06:37:41;;;;;;;8.53;2.70;;;15.30;94.00;;;;;;5008667;28;20430;-63
2023/10/13 06:42:55;;;;;;;3.57;1.70;;;15.50;93.40;;;;;;5011555;28;20758;-63
2023/10/13 06:45:21;;;;;;;6.30;2.30;;;15.60;93.40;;;;;;5010912;28;20426;-63
2023/10/13 06:47:52;;;;;;;7.27;2.00;;;15.60;93.20;;;;;;5003564;28;20500;-64
2023/10/13 06:50:24;;;;;;;5.10;2.27;;;15.60;93.30;;;;;;5003116;28;20431;-63
2023/10/13 06:52:50;;;;;;;4.67;2.27;;;15.70;93.10;;;;;;5010868;28;20942;-63
2023/10/13 06:55:17;;;;;;;4.47;2.60;;;15.70;93.30;;;;;;5002697;28;20698;-63
2023/10/13 06:57:46;;;;;;;6.57;2.40;;;15.70;93.30;;;;;;5011014;28;20418;-63
2023/10/13 07:00:28;;;;;;;7.93;2.20;;;15.80;93.20;;;;;;5009426;28;20531;-63
2023/10/13 07:03:05;;;;;;;12.53;2.53;;;15.90;93.10;;;;;;5009992;28;20414;-63
2023/10/13 07:05:41;;;;;;;7.47;2.57;;;16.00;92.90;;;;;;5010552;28;21301;-63
2023/10/13 07:08:07;;;;;;;6.60;2.37;;;16.20;92.50;;;;;;5011143;28;20424;-63
2023/10/13 07:10:44;;;;;;;5.07;1.97;;;16.30;92.20;;;;;;5010348;28;20512;-63
2023/10/13 07:13:13;;;;;;;4.10;1.57;;;16.30;92.50;;;;;;5013149;28;20424;-63
2023/10/13 07:15:44;;;;;;;6.17;2.10;;;16.50;92.20;;;;;;5008626;28;20444;-63
2023/10/13 07:18:22;;;;;;;4.03;1.83;;;16.60;92.20;;;;;;5011428;28;20540;-63
2023/10/13 07:20:48;;;;;;;3.90;2.10;;;16.70;92.10;;;;;;5005987;28;20429;-63
2023/10/13 07:23:17;;;;;;;12.90;2.67;;;16.90;91.80;;;;;;5015698;28;20481;-63
2023/10/13 07:25:54;;;;;;;3.67;1.70;;;16.90;92.00;;;;;;5013523;28;20429;-63
2023/10/13 07:28:20;;;;;;;4.70;2.40;;;17.00;91.80;;;;;;5011572;28;20446;-63
2023/10/13 07:33:21;;;;;;;5.43;2.40;;;17.60;91.30;;;;;;5010487;28;20412;-63
2023/10/13 07:35:50;;;;;;;3.80;2.20;;;17.90;91.00;;;;;;5011044;28;20505;-63
2023/10/13 07:38:16;;;;;;;5.70;1.90;;;18.00;90.90;;;;;;5011184;28;20444;-63
2023/10/13 07:40:50;;;;;;;6.87;2.77;;;18.20;90.60;;;;;;5010265;28;20426;-63
2023/10/13 07:43:21;;;;;;;8.23;2.20;;;18.40;90.20;;;;;;5007425;28;20491;-63
2023/10/13 07:45:50;;;;;;;4.30;2.07;;;18.00;90.40;;;;;;5006341;28;20500;-63
2023/10/13 07:48:20;;;;;;;8.27;2.40;;;17.80;90.70;;;;;;5011996;28;20449;-63
2023/10/13 07:51:18;;;;;;;13.33;2.20;;;17.70;90.90;;;;;;5005487;28;20421;-63
2023/10/13 07:53:48;;;;;;;6.57;1.43;;;17.60;91.10;;;;;;4966794;28;20517;-63
2023/10/13 07:56:18;;;;;;;5.80;2.20;;;17.60;91.50;;;;;;5008942;28;20446;-63
2023/10/13 07:59:00;;;;;;;5.73;1.80;;;18.00;91.80;;;;;;5010391;28;20454;-63
2023/10/13 08:01:26;;;;;;;11.70;2.50;;;18.40;90.70;;;;;;5012585;28;20433;-63
2023/10/13 08:06:36;;;;;;;8.30;2.27;;;19.30;89.10;;;;;;5009481;28;20439;-63
2023/10/13 08:09:09;;;;;;;4.00;2.03;;;;;;;;;;5010382;28;20457;-63
2023/10/13 08:11:37;;;;;;;7.70;2.13;;;19.90;87.00;;;;;;5010400;28;20430;-63
2023/10/13 08:14:11;;;;;;;11.10;2.37;;;20.10;86.50;;;;;;5007960;28;21188;-63
2023/10/13 08:19:26;;;;;;;4.33;2.57;;;20.70;85.40;;;;;;5010929;28;20465;-63
2023/10/13 08:21:58;;;;;;;6.53;2.00;;;20.80;84.40;;;;;;5007947;28;20418;-63
2023/10/13 08:27:33;;;;;;;6.30;2.97;;;21.50;82.80;;;;;;5004318;28;20418;-63
2023/10/13 08:53:47;;;;;;;16.73;2.67;;;22.70;79.40;;;;;;5009482;28;20413;-64
2023/10/13 09:04:22;;;;;;;5.63;2.07;;;21.50;82.00;;;;;;5010032;28;20513;-63
2023/10/13 09:07:29;;;;;;;6.87;2.50;;;21.30;82.50;;;;;;5007259;28;20751;-63
2023/10/13 09:12:19;;;;;;;4.33;2.17;;;21.00;83.20;;;;;;5007688;28;20414;-63
2023/10/13 09:14:57;;;;;;;3.53;1.63;;;20.90;84.10;;;;;;5006512;28;20430;-63
2023/10/13 09:20:11;;;;;;;8.33;1.80;;;20.80;85.10;;;;;;5006252;28;20518;-63
2023/10/13 09:22:37;;;;;;;5.13;2.10;;;20.80;84.60;;;;;;5007272;28;20421;-64
2023/10/13 09:25:13;;;;;;;4.97;1.87;;;20.90;85.20;;;;;;5008700;28;20943;-63
2023/10/13 09:27:39;;;;;;;5.03;2.10;;;20.90;85.70;;;;;;5008861;28;20167;-63
2023/10/13 09:30:22;;;;;;;4.77;1.53;;;21.00;85.20;;;;;;5011631;28;20421;-63
2023/10/13 09:33:01;;;;;;;5.17;2.57;;;21.00;84.10;;;;;;5005152;28;20939;-64
2023/10/13 09:35:28;;;;;;;5.30;2.03;;;21.10;84.60;;;;;;5008541;28;20508;-64
2023/10/13 09:37:57;;;;;;;14.43;2.17;;;21.40;81.70;;;;;;5007924;28;20528;-63
2023/10/13 09:40:28;;;;;;;6.10;2.37;;;21.50;81.10;;;;;;5006016;28;20485;-63
2023/10/13 09:42:56;;;;;;;25.80;2.10;;;21.60;78.40;;;;;;5007416;28;20408;-63
2023/10/13 09:45:33;;;;;;;3.60;1.50;;;21.90;79.30;;;;;;5007489;28;20796;-63
2023/10/13 09:48:16;;;;;;;9.03;2.30;;;22.10;77.60;;;;;;5008227;28;20842;-63
2023/10/13 09:50:44;;;;;;;11.80;2.57;;;22.10;76.90;;;;;;5004256;28;20447;-64
2023/10/13 09:53:13;;;;;;;6.57;2.37;;;22.20;77.20;;;;;;5008057;28;20417;-63
2023/10/13 09:55:45;;;;;;;7.70;1.40;;;22.50;76.90;;;;;;5012385;28;20816;-63
2023/10/13 09:58:18;;;;;;;6.20;1.77;;;22.60;76.30;;;;;;5008591;28;20410;-64
2023/10/13 10:04:07;;;;;;;5.23;2.40;;;22.90;75.60;;;;;;5012337;28;20434;-63
2023/10/13 10:06:39;;;;;;;8.83;2.50;;;23.00;75.60;;;;;;5006033;28;20511;-63
2023/10/13 10:09:11;;;;;;;4.17;1.90;;;23.20;75.40;;;;;;5013773;28;20557;-64
2023/10/13 10:11:56;;;;;;;7.17;2.27;;;23.30;75.80;;;;;;5008855;28;20417;-63
2023/10/13 10:14:42;;;;;;;6.30;1.70;;;23.50;75.20;;;;;;5011285;28;20431;-63
2023/10/13 10:17:08;;;;;;;5.37;2.03;;;23.90;74.50;;;;;;5010276;28;20406;-63
2023/10/13 10:19:55;;;;;;;7.50;1.90;;;24.10;74.50;;;;;;5007930;28;20503;-63
2023/10/13 10:22:36;;;;;;;7.33;2.63;;;24.10;75.00;;;;;;5007581;28;20497;-63
2023/10/13 10:28:01;;;;;;;2.60;1.60;;;24.60;74.70;;;;;;5002766;28;20484;-63
2023/10/13 10:30:33;;;;;;;2.87;1.57;;;24.80;73.90;;;;;;5003896;28;20925;-63
2023/10/13 10:33:00;;;;;;;6.13;2.50;;;24.80;72.70;;;;;;5008576;28;20425;-63
2023/10/13 10:35:29;;;;;;;3.00;1.43;;;24.80;71.30;;;;;;5009323;28;20473;-63
2023/10/13 10:38:11;;;;;;;9.93;1.57;;;24.90;68.80;;;;;;5007057;28;20480;-63
2023/10/13 10:40:52;;;;;;;4.43;2.33;;;24.70;69.90;;;;;;5006189;28;20488;-63
2023/10/13 10:43:18;;;;;;;11.20;2.30;;;24.60;69.70;;;;;;5009292;28;20775;-63
2023/10/13 10:45:51;;;;;;;7.37;1.53;;;24.50;71.40;;;;;;5006112;28;20818;-63
2023/10/13 10:48:17;;;;;;;5.03;1.63;;;24.40;70.50;;;;;;5009359;28;20428;-63
2023/10/13 10:51:13;;;;;;;16.13;2.30;;;24.20;68.80;;;;;;5010468;28;20429;-63
2023/10/13 10:53:45;;;;;;;9.40;2.50;;;24.30;70.00;;;;;;5010379;28;20791;-63
2023/10/13 10:56:45;;;;;;;4.07;1.93;;;24.50;69.00;;;;;;5007001;28;20413;-63
2023/10/13 10:59:15;;;;;;;4.20;1.87;;;24.60;68.90;;;;;;5008224;28;20994;-63
2023/10/13 11:01:46;;;;;;;6.33;2.10;;;24.50;68.60;;;;;;5009782;28;20447;-63
2023/10/13 11:04:24;;;;;;;11.57;2.20;;;24.40;70.60;;;;;;5011691;28;20446;-63
2023/10/13 11:06:57;;;;;;;7.83;2.13;;;24.60;68.00;;;;;;5012791;28;20444;-63
2023/10/13 11:14:59;;;;;;;7.37;1.90;;;24.80;68.70;;;;;;5008887;28;20433;-63
2023/10/13 11:17:48;;;;;;;11.10;2.17;;;24.70;69.40;;;;;;5010602;28;20440;-63
2023/10/13 11:20:17;;;;;;;3.73;1.37;;;24.90;69.90;;;;;;5009366;28;20468;-63
2023/10/13 11:22:47;;;;;;;13.17;2.57;;;25.10;68.50;;;;;;5010434;28;20477;-63
2023/10/13 11:25:29;;;;;;;2.80;1.60;;;25.20;68.10;;;;;;5009366;28;20837;-63
2023/10/13 11:27:59;;;;;;;5.53;1.70;;;25.50;69.30;;;;;;5012396;28;20902;-63
2023/10/13 11:30:31;;;;;;;17.63;2.37;;;25.60;68.40;;;;;;5009567;28;20429;-63
2023/10/13 11:33:08;;;;;;;3.97;1.80;;;25.60;68.20;;;;;;5013054;28;20417;-63
2023/10/13 11:38:27;;;;;;;11.03;1.97;;;26.10;66.50;;;;;;5009966;28;20449;-63
2023/10/13 11:51:48;;;;;;;7.40;2.20;;;27.00;64.40;;;;;;5006859;28;20252;-63
2023/10/13 11:54:19;;;;;;;12.83;2.37;;;27.00;62.50;;;;;;5011956;28;20278;-63
2023/10/13 11:56:45;;;;;;;10.80;1.83;;;27.00;62.20;;;;;;5009984;28;20183;-63
2023/10/13 11:59:17;;;;;;;5.03;2.00;;;27.10;62.00;;;;;;5008935;28;20313;-63
2023/10/13 12:07:51;;;;;;;2.50;1.20;;;26.80;62.10;;;;;;5007693;28;20178;-63
2023/10/13 12:12:23;;;;;;;5.13;1.70;;;26.70;60.90;;;;;;5012083;28;20209;-63
2023/10/13 12:14:55;;;;;;;4.30;2.03;;;26.60;61.60;;;;;;5010157;28;20230;-63
2023/10/13 12:17:34;;;;;;;7.37;1.50;;;26.60;61.90;;;;;;5011051;28;20174;-63
2023/10/13 12:20:10;;;;;;;12.07;2.47;;;26.70;62.10;;;;;;5007013;28;20232;-63
2023/10/13 12:22:42;;;;;;;8.23;1.97;;;26.70;63.50;;;;;;5009252;28;20252;-63
2023/10/13 12:25:24;;;;;;;7.70;1.97;;;27.00;63.10;;;;;;5007241;28;20987;-63
2023/10/13 12:27:56;;;;;;;10.23;1.90;;;27.00;61.30;;;;;;5004008;28;20171;-63
2023/10/13 12:30:48;;;;;;;6.10;2.20;;;26.70;61.70;;;;;;5005194;28;20576;-63
2023/10/13 12:33:24;;;;;;;6.43;2.07;;;26.90;62.10;;;;;;5010127;28;20265;-63
2023/10/13 12:36:06;;;;;;;4.47;1.97;;;26.80;61.10;;;;;;5006940;28;20166;-62
2023/10/13 12:52:16;;;;;;;16.43;2.50;;;26.90;58.90;;;;;;5005355;28;20224;-62
2023/10/13 12:54:46;;;;;;;5.33;2.00;;;27.00;59.20;;;;;;5006969;28;20619;-62
2023/10/13 12:57:16;;;;;;;4.03;1.60;;;26.90;58.00;;;;;;5009636;28;20608;-62
2023/10/13 12:59:43;;;;;;;4.03;2.00;;;26.90;58.50;;;;;;5008631;28;20229;-62
2023/10/13 13:02:14;;;;;;;13.70;2.00;;;26.90;58.40;;;;;;5012465;28;20181;-63
2023/10/13 13:04:43;;;;;;;6.43;1.67;;;27.00;57.80;;;;;;5005254;28;20184;-62
2023/10/13 13:07:13;;;;;;;6.00;2.33;;;27.10;57.20;;;;;;5009307;28;20210;-63
2023/10/13 13:09:43;;;;;;;2.50;1.43;;;27.00;57.10;;;;;;5012674;28;20719;-62
2023/10/13 13:12:12;;;;;;;5.50;2.27;;;27.00;56.60;;;;;;5009101;28;20203;-62
2023/10/13 13:14:41;;;;;;;15.93;1.77;;;26.80;56.80;;;;;;5005987;28;20266;-63
2023/10/13 13:17:07;;;;;;;4.00;2.20;;;26.90;57.30;;;;;;5006962;28;20274;-62
2023/10/13 13:19:39;;;;;;;4.20;1.40;;;26.90;57.80;;;;;;5005821;28;20560;-62
2023/10/13 13:22:11;;;;;;;12.80;2.00;;;27.00;59.10;;;;;;5008676;28;20175;-63
2023/10/13 13:24:47;;;;;;;11.33;2.00;;;27.00;56.60;;;;;;5006393;28;20183;-62
2023/10/13 13:27:14;;;;;;;4.43;2.00;;;26.90;57.20;;;;;;5004573;28;20162;-62
2023/10/13 13:29:43;;;;;;;20.43;2.50;;;26.80;56.20;;;;;;5006964;28;20182;-63
2023/10/13 13:32:24;;;;;;;7.73;2.27;;;26.80;57.00;;;;;;5022489;28;20183;-63
2023/10/13 13:35:13;;;;;;;7.50;1.83;;;26.70;57.80;;;;;;5007008;28;20179;-63
2023/10/13 13:37:39;;;;;;;6.47;2.23;;;26.70;57.90;;;;;;5009548;28;20198;-63
2023/10/13 13:40:15;;;;;;;6.17;1.20;;;26.80;58.90;;;;;;5009064;28;20697;-62
2023/10/13 13:42:42;;;;;;;3.50;1.60;;;26.90;57.40;;;;;;5016708;28;20181;-62
2023/10/13 13:45:21;;;;;;;14.67;2.23;;;26.90;58.00;;;;;;5008157;28;20269;-63
2023/10/13 13:47:53;;;;;;;8.63;2.30;;;26.90;58.00;;;;;;5009532;28;20186;-62
2023/10/13 13:50:28;;;;;;;5.50;1.90;;;26.90;56.80;;;;;;5007147;28;20691;-62
2023/10/13 13:52:56;;;;;;;10.87;2.50;;;26.80;56.70;;;;;;5008915;28;20174;-63
2023/10/13 13:55:23;;;;;;;10.50;2.47;;;26.80;57.40;;;;;;5007017;28;20210;-62
2023/10/13 13:57:50;;;;;;;5.87;2.27;;;26.70;57.80;;;;;;5008034;28;20278;-62
2023/10/13 14:00:20;;;;;;;3.70;1.93;;;26.70;56.30;;;;;;5001545;28;20191;-62
2023/10/13 14:02:50;;;;;;;7.47;1.60;;;26.70;56.00;;;;;;5005741;28;20174;-62
2023/10/13 14:05:16;;;;;;;3.67;1.57;;;26.80;55.50;;;;;;5004156;28;20182;-63
2023/10/13 14:07:48;;;;;;;5.40;1.93;;;26.70;55.50;;;;;;5008535;28;20210;-63
2023/10/13 14:10:31;;;;;;;10.90;1.83;;;26.60;55.30;;;;;;5007517;28;20452;-63
2023/10/13 14:13:14;;;;;;;7.63;1.70;;;26.60;55.50;;;;;;5009680;28;20182;-63
2023/10/13 14:15:43;;;;;;;4.13;1.80;;;26.60;56.00;;;;;;5005750;28;20186;-63
2023/10/13 14:18:14;;;;;;;3.10;1.47;;;26.60;55.90;;;;;;5005718;28;20175;-63
2023/10/13 14:20:41;;;;;;;4.53;2.07;;;26.60;54.80;;;;;;5003565;28;20214;-63
2023/10/13 14:23:11;;;;;;;7.20;2.00;;;26.60;55.70;;;;;;5005151;28;20179;-63
2023/10/13 14:25:44;;;;;;;3.57;1.90;;;26.60;54.60;;;;;;5008147;28;20186;-63
2023/10/13 14:28:15;;;;;;;8.27;1.47;;;26.50;54.20;;;;;;5012642;28;20885;-63
2023/10/13 14:30:40;;;;;;;2.63;1.00;;;26.50;54.50;;;;;;5009905;28;20585;-63
2023/10/13 14:33:10;;;;;;;2.70;1.57;;;26.50;53.90;;;;;;5011478;28;20750;-63
2023/10/13 14:35:37;;;;;;;3.50;1.40;;;26.50;53.10;;;;;;5008269;28;20201;-63
2023/10/13 14:38:03;;;;;;;3.07;1.33;;;26.40;52.60;;;;;;5010735;28;20441;-63
2023/10/13 14:40:29;;;;;;;4.50;1.60;;;26.40;52.50;;;;;;5005787;28;20493;-63
2023/10/13 14:42:56;;;;;;;3.20;1.23;;;26.30;52.50;;;;;;5011676;28;20639;-63
2023/10/13 14:45:21;;;;;;;9.03;1.97;;;26.30;52.20;;;;;;5005626;28;20226;-63
2023/10/13 14:47:47;;;;;;;22.57;1.93;;;26.30;51.70;;;;;;5012685;28;20414;-63
2023/10/13 14:50:19;;;;;;;3.23;1.50;;;26.20;53.40;;;;;;5008691;28;20187;-63
2023/10/13 14:52:46;;;;;;;2.27;1.37;;;26.30;51.20;;;;;;5010798;28;20190;-63
2023/10/13 14:55:21;;;;;;;19.53;1.37;;;26.20;51.50;;;;;;5009128;28;20422;-63
2023/10/13 14:57:50;;;;;;;3.03;1.37;;;26.20;51.90;;;;;;5012001;28;20450;-63
2023/10/13 15:00:24;;;;;;;4.23;1.47;;;26.10;52.00;;;;;;5010005;28;21095;-63
2023/10/13 15:02:51;;;;;;;2.80;1.50;;;26.00;51.60;;;;;;5004440;28;20508;-63
2023/10/13 15:05:17;;;;;;;3.10;0.87;;;26.00;52.40;;;;;;5010417;28;20457;-63
2023/10/13 15:07:44;;;;;;;7.07;1.70;;;25.90;51.80;;;;;;5012725;28;21211;-63
2023/10/13 15:10:14;;;;;;;5.83;1.47;;;25.80;52.10;;;;;;5011531;28;20175;-63
2023/10/13 15:12:46;;;;;;;2.73;1.20;;;25.80;53.20;;;;;;5009250;28;20453;-63
2023/10/13 15:15:19;;;;;;;12.30;1.50;;;25.80;52.70;;;;;;5010936;28;20839;-64
2023/10/13 15:17:45;;;;;;;2.70;1.63;;;25.60;52.10;;;;;;5004906;28;20424;-63
2023/10/13 15:20:15;;;;;;;4.40;1.50;;;25.50;52.40;;;;;;5010094;28;20457;-63
2023/10/13 15:22:47;;;;;;;4.10;1.37;;;25.50;54.00;;;;;;5009042;28;20475;-63
2023/10/13 15:25:28;;;;;;;2.10;1.20;;;25.30;54.80;;;;;;5010388;28;20433;-63
2023/10/13 15:27:57;;;;;;;9.10;1.40;;;25.30;53.50;;;;;;5006513;28;20484;-63
2023/10/13 15:30:25;;;;;;;2.20;1.10;;;25.30;54.50;;;;;;5009944;28;20452;-63
2023/10/13 15:32:51;;;;;;;7.73;1.40;;;25.30;53.40;;;;;;5009789;28;20424;-63
2023/10/13 15:35:18;;;;;;;9.10;1.13;;;25.30;53.10;;;;;;5009247;28;20426;-63
2023/10/13 15:37:47;;;;;;;11.70;1.50;;;25.30;53.70;;;;;;5010946;28;20216;-64
2023/10/13 15:40:16;;;;;;;11.67;1.93;;;25.20;52.80;;;;;;5011131;28;20468;-63
2023/10/13 15:42:45;;;;;;;2.43;1.17;;;25.00;54.00;;;;;;5012248;28;20417;-63
2023/10/13 15:45:17;;;;;;;2.90;1.23;;;24.90;53.60;;;;;;5007164;28;20507;-63
2023/10/13 15:47:47;;;;;;;3.90;1.10;;;24.90;53.40;;;;;;5011890;28;20418;-63
2023/10/13 15:50:16;;;;;;;6.00;1.43;;;24.90;53.90;;;;;;5009805;28;20430;-63
2023/10/13 15:52:45;;;;;;;4.90;1.63;;;24.80;54.10;;;;;;5011817;28;20422;-63
2023/10/13 15:55:13;;;;;;;4.90;1.80;;;24.80;53.40;;;;;;5007563;28;20430;-63
2023/10/13 15:57:39;;;;;;;4.33;1.90;;;24.70;53.60;;;;;;5011252;28;20421;-65
2023/10/13 16:00:23;;;;;;;11.73;2.30;;;24.60;54.30;;;;;;5009684;28;20468;-65
2023/10/13 16:02:59;;;;;;;4.23;1.33;;;24.40;55.20;;;;;;5004232;28;20433;-65
2023/10/13 16:05:34;;;;;;;3.67;1.70;;;24.30;54.90;;;;;;5005869;28;20434;-64
2023/10/13 16:08:01;;;;;;;3.17;1.20;;;24.10;56.30;;;;;;5007819;28;20505;-65
2023/10/13 16:10:27;;;;;;;4.87;1.63;;;23.90;57.40;;;;;;5008984;28;20458;-64
2023/10/13 16:12:57;;;;;;;5.10;1.30;;;23.80;56.80;;;;;;5008197;28;20527;-64
2023/10/13 16:15:23;;;;;;;3.97;1.23;;;23.60;57.20;;;;;;5009339;28;20182;-64
2023/10/13 16:17:53;;;;;;;4.83;1.57;;;23.50;58.00;;;;;;5011699;28;20508;-64
2023/10/13 16:20:20;;;;;;;5.80;1.90;;;23.30;58.20;;;;;;5008801;28;20711;-64
2023/10/13 16:22:47;;;;;;;4.10;1.63;;;23.20;59.10;;;;;;5003761;28;20437;-64
2023/10/13 16:25:14;;;;;;;2.87;1.20;;;23.00;59.10;;;;;;5008867;28;20432;-64
2023/10/13 16:27:42;;;;;;;5.20;1.43;;;22.90;59.40;;;;;;5008758;28;20422;-64
2023/10/13 16:30:15;;;;;;;3.83;1.63;;;22.80;60.00;;;;;;5009289;28;20475;-64
2023/10/13 16:32:47;;;;;;;5.57;1.20;;;22.60;59.90;;;;;;5009468;28;20906;-64
2023/10/13 16:35:17;;;;;;;10.80;1.93;;;22.40;61.50;;;;;;5005893;28;20497;-64
2023/10/13 16:37:47;;;;;;;2.43;1.30;;;22.30;61.90;;;;;;5010924;28;20789;-64
2023/10/13 16:40:20;;;;;;;7.73;1.90;;;22.20;61.20;;;;;;5006639;28;20549;-64
2023/10/13 16:42:47;;;;;;;4.07;2.10;;;22.10;62.00;;;;;;5007611;28;20406;-64
2023/10/13 16:45:20;;;;;;;2.50;1.47;;;22.20;61.10;;;;;;5006140;28;20457;-64
2023/10/13 16:47:49;;;;;;;3.60;1.30;;;22.10;62.50;;;;;;5008260;28;20467;-64